sensor_id;sensor_type;location;lat;lon;timestamp;P1;durP1;ratioP1;P2;durP2;ratioP2
4375;SDS011;2202;50.866;12.750;2022-09-13T00:01:24;10.57;;;7.90;;
4375;SDS011;2202;50.866;12.750;2022-09-13T00:03:52;9.37;;;8.13;;
4375;SDS011;2202;50.866;12.750;2022-09-13T00:06:19;8.60;;;7.63;;
4375;SDS011;2202;50.866;12.750;2022-09-13T00:08:47;8.30;;;7.33;;
4375;SDS011;2202;50.866;12.750;2022-09-13T00:11:15;9.20;;;8.33;;
4375;SDS011;2202;50.866;12.750;2022-09-13T00:13:44;10.33;;;9.20;;
4375;SDS011;2202;50.866;12.750;2022-09-13T00:16:11;9.40;;;8.50;;
4375;SDS011;2202;50.866;12.750;2022-09-13T00:18:39;11.30;;;9.90;;
4375;SDS011;2202;50.866;12.750;2022-09-13T00:21:09;9.43;;;8.53;;
4375;SDS011;2202;50.866;12.750;2022-09-13T00:23:38;9.57;;;8.57;;
4375;SDS011;2202;50.866;12.750;2022-09-13T00:26:06;11.40;;;7.37;;
4375;SDS011;2202;50.866;12.750;2022-09-13T00:28:34;8.67;;;7.37;;
4375;SDS011;2202;50.866;12.750;2022-09-13T00:31:02;7.70;;;6.60;;
4375;SDS011;2202;50.866;12.750;2022-09-13T00:33:30;8.50;;;7.10;;
4375;SDS011;2202;50.866;12.750;2022-09-13T00:35:57;8.37;;;7.40;;
4375;SDS011;2202;50.866;12.750;2022-09-13T00:38:25;8.40;;;7.50;;
4375;SDS011;2202;50.866;12.750;2022-09-13T00:40:52;9.23;;;7.40;;
4375;SDS011;2202;50.866;12.750;2022-09-13T00:43:20;10.73;;;8.47;;
4375;SDS011;2202;50.866;12.750;2022-09-13T00:46:05;9.20;;;7.37;;
4375;SDS011;2202;50.866;12.750;2022-09-13T00:48:33;8.33;;;7.30;;
4375;SDS011;2202;50.866;12.750;2022-09-13T00:51:01;7.67;;;6.33;;
4375;SDS011;2202;50.866;12.750;2022-09-13T00:53:31;9.13;;;8.23;;
4375;SDS011;2202;50.866;12.750;2022-09-13T00:56:02;11.07;;;8.20;;
4375;SDS011;2202;50.866;12.750;2022-09-13T00:58:34;8.53;;;7.73;;
4375;SDS011;2202;50.866;12.750;2022-09-13T01:01:06;8.07;;;6.67;;
4375;SDS011;2202;50.866;12.750;2022-09-13T01:03:36;10.30;;;7.73;;
4375;SDS011;2202;50.866;12.750;2022-09-13T01:06:05;8.83;;;7.50;;
4375;SDS011;2202;50.866;12.750;2022-09-13T01:08:38;8.27;;;6.70;;
4375;SDS011;2202;50.866;12.750;2022-09-13T01:11:09;7.03;;;6.33;;
4375;SDS011;2202;50.866;12.750;2022-09-13T01:13:42;8.53;;;7.10;;
4375;SDS011;2202;50.866;12.750;2022-09-13T01:16:10;14.03;;;6.60;;
4375;SDS011;2202;50.866;12.750;2022-09-13T01:18:37;6.80;;;6.10;;
4375;SDS011;2202;50.866;12.750;2022-09-13T01:21:13;7.07;;;6.00;;
4375;SDS011;2202;50.866;12.750;2022-09-13T01:24:12;7.87;;;6.53;;
4375;SDS011;2202;50.866;12.750;2022-09-13T01:30:11;7.67;;;5.67;;
4375;SDS011;2202;50.866;12.750;2022-09-13T01:35:53;8.10;;;5.90;;
4375;SDS011;2202;50.866;12.750;2022-09-13T01:38:37;7.27;;;6.40;;
4375;SDS011;2202;50.866;12.750;2022-09-13T01:41:16;7.10;;;5.63;;
4375;SDS011;2202;50.866;12.750;2022-09-13T01:43:54;12.30;;;6.07;;
4375;SDS011;2202;50.866;12.750;2022-09-13T01:46:27;11.00;;;7.17;;
4375;SDS011;2202;50.866;12.750;2022-09-13T01:49:02;6.80;;;6.10;;
4375;SDS011;2202;50.866;12.750;2022-09-13T01:51:35;7.33;;;5.83;;
4375;SDS011;2202;50.866;12.750;2022-09-13T01:54:11;8.20;;;6.07;;
4375;SDS011;2202;50.866;12.750;2022-09-13T01:56:46;8.00;;;5.73;;
4375;SDS011;2202;50.866;12.750;2022-09-13T01:59:19;8.70;;;6.70;;
4375;SDS011;2202;50.866;12.750;2022-09-13T02:01:53;10.30;;;6.53;;
4375;SDS011;2202;50.866;12.750;2022-09-13T02:04:25;7.50;;;6.00;;
4375;SDS011;2202;50.866;12.750;2022-09-13T02:06:57;8.43;;;6.20;;
4375;SDS011;2202;50.866;12.750;2022-09-13T02:09:29;9.33;;;6.87;;
4375;SDS011;2202;50.866;12.750;2022-09-13T02:12:02;8.23;;;5.30;;
4375;SDS011;2202;50.866;12.750;2022-09-13T02:14:33;7.80;;;6.07;;
4375;SDS011;2202;50.866;12.750;2022-09-13T02:17:05;7.67;;;6.23;;
4375;SDS011;2202;50.866;12.750;2022-09-13T02:19:36;9.40;;;5.80;;
4375;SDS011;2202;50.866;12.750;2022-09-13T02:22:07;6.70;;;6.00;;
4375;SDS011;2202;50.866;12.750;2022-09-13T02:24:37;7.43;;;5.83;;
4375;SDS011;2202;50.866;12.750;2022-09-13T02:27:07;8.47;;;6.77;;
4375;SDS011;2202;50.866;12.750;2022-09-13T02:29:38;10.13;;;7.27;;
4375;SDS011;2202;50.866;12.750;2022-09-13T02:32:09;8.20;;;6.73;;
4375;SDS011;2202;50.866;12.750;2022-09-13T02:34:41;8.77;;;7.17;;
4375;SDS011;2202;50.866;12.750;2022-09-13T02:37:11;8.57;;;6.40;;
4375;SDS011;2202;50.866;12.750;2022-09-13T02:39:40;7.47;;;6.10;;
4375;SDS011;2202;50.866;12.750;2022-09-13T02:42:16;9.77;;;6.20;;
4375;SDS011;2202;50.866;12.750;2022-09-13T02:44:47;9.20;;;7.47;;
4375;SDS011;2202;50.866;12.750;2022-09-13T02:47:26;8.67;;;6.17;;
4375;SDS011;2202;50.866;12.750;2022-09-13T02:50:04;9.90;;;6.80;;
4375;SDS011;2202;50.866;12.750;2022-09-13T02:52:48;12.47;;;7.10;;
4375;SDS011;2202;50.866;12.750;2022-09-13T02:55:20;8.40;;;7.30;;
4375;SDS011;2202;50.866;12.750;2022-09-13T02:57:52;7.63;;;6.70;;
4375;SDS011;2202;50.866;12.750;2022-09-13T03:00:25;7.87;;;6.27;;
4375;SDS011;2202;50.866;12.750;2022-09-13T03:02:55;9.17;;;7.10;;
4375;SDS011;2202;50.866;12.750;2022-09-13T03:05:23;7.90;;;7.10;;
4375;SDS011;2202;50.866;12.750;2022-09-13T03:07:50;9.00;;;7.60;;
4375;SDS011;2202;50.866;12.750;2022-09-13T03:10:18;8.13;;;7.33;;
4375;SDS011;2202;50.866;12.750;2022-09-13T03:12:52;9.03;;;8.10;;
4375;SDS011;2202;50.866;12.750;2022-09-13T03:15:32;11.73;;;7.80;;
4375;SDS011;2202;50.866;12.750;2022-09-13T03:18:11;8.90;;;7.57;;
4375;SDS011;2202;50.866;12.750;2022-09-13T03:20:45;9.50;;;7.20;;
4375;SDS011;2202;50.866;12.750;2022-09-13T03:23:27;9.00;;;7.73;;
4375;SDS011;2202;50.866;12.750;2022-09-13T03:26:23;11.13;;;8.23;;
4375;SDS011;2202;50.866;12.750;2022-09-13T03:28:59;10.63;;;7.80;;
4375;SDS011;2202;50.866;12.750;2022-09-13T03:31:41;11.20;;;8.30;;
4375;SDS011;2202;50.866;12.750;2022-09-13T03:34:15;10.70;;;8.40;;
4375;SDS011;2202;50.866;12.750;2022-09-13T03:36:53;10.80;;;7.90;;
4375;SDS011;2202;50.866;12.750;2022-09-13T03:39:24;13.37;;;8.27;;
4375;SDS011;2202;50.866;12.750;2022-09-13T03:42:00;10.57;;;8.57;;
4375;SDS011;2202;50.866;12.750;2022-09-13T03:44:31;10.87;;;7.57;;
4375;SDS011;2202;50.866;12.750;2022-09-13T03:47:00;11.10;;;8.50;;
4375;SDS011;2202;50.866;12.750;2022-09-13T03:49:31;13.00;;;7.90;;
4375;SDS011;2202;50.866;12.750;2022-09-13T03:52:02;10.70;;;8.57;;
4375;SDS011;2202;50.866;12.750;2022-09-13T03:54:30;10.50;;;8.10;;
4375;SDS011;2202;50.866;12.750;2022-09-13T03:57:08;10.87;;;8.20;;
4375;SDS011;2202;50.866;12.750;2022-09-13T03:59:36;10.90;;;8.30;;
4375;SDS011;2202;50.866;12.750;2022-09-13T04:02:05;10.10;;;7.40;;
4375;SDS011;2202;50.866;12.750;2022-09-13T04:04:37;10.77;;;8.20;;
4375;SDS011;2202;50.866;12.750;2022-09-13T04:07:05;12.50;;;8.47;;
4375;SDS011;2202;50.866;12.750;2022-09-13T04:09:33;8.70;;;7.20;;
4375;SDS011;2202;50.866;12.750;2022-09-13T04:12:00;10.93;;;7.57;;
4375;SDS011;2202;50.866;12.750;2022-09-13T04:14:27;11.20;;;8.47;;
4375;SDS011;2202;50.866;12.750;2022-09-13T04:16:55;12.03;;;8.67;;
4375;SDS011;2202;50.866;12.750;2022-09-13T04:19:23;8.50;;;7.60;;
4375;SDS011;2202;50.866;12.750;2022-09-13T04:21:53;9.57;;;7.97;;
4375;SDS011;2202;50.866;12.750;2022-09-13T04:24:22;11.43;;;9.10;;
4375;SDS011;2202;50.866;12.750;2022-09-13T04:26:51;8.43;;;7.53;;
4375;SDS011;2202;50.866;12.750;2022-09-13T04:29:19;9.00;;;7.70;;
4375;SDS011;2202;50.866;12.750;2022-09-13T04:31:48;9.50;;;7.80;;
4375;SDS011;2202;50.866;12.750;2022-09-13T04:34:16;11.33;;;9.10;;
4375;SDS011;2202;50.866;12.750;2022-09-13T04:36:44;11.33;;;9.90;;
4375;SDS011;2202;50.866;12.750;2022-09-13T04:39:12;11.57;;;8.43;;
4375;SDS011;2202;50.866;12.750;2022-09-13T04:41:39;10.87;;;8.60;;
4375;SDS011;2202;50.866;12.750;2022-09-13T04:44:08;12.30;;;8.73;;
4375;SDS011;2202;50.866;12.750;2022-09-13T04:46:35;11.97;;;8.93;;
4375;SDS011;2202;50.866;12.750;2022-09-13T04:49:02;9.33;;;7.50;;
4375;SDS011;2202;50.866;12.750;2022-09-13T04:51:29;10.63;;;8.60;;
4375;SDS011;2202;50.866;12.750;2022-09-13T04:53:56;8.87;;;7.30;;
4375;SDS011;2202;50.866;12.750;2022-09-13T04:56:25;9.00;;;7.47;;
4375;SDS011;2202;50.866;12.750;2022-09-13T04:58:53;9.93;;;7.80;;
4375;SDS011;2202;50.866;12.750;2022-09-13T05:01:21;9.83;;;8.00;;
4375;SDS011;2202;50.866;12.750;2022-09-13T05:03:49;10.63;;;8.30;;
4375;SDS011;2202;50.866;12.750;2022-09-13T05:06:16;8.60;;;7.10;;
4375;SDS011;2202;50.866;12.750;2022-09-13T05:08:43;9.93;;;7.90;;
4375;SDS011;2202;50.866;12.750;2022-09-13T05:11:15;11.37;;;8.57;;
4375;SDS011;2202;50.866;12.750;2022-09-13T05:13:47;10.00;;;7.67;;
4375;SDS011;2202;50.866;12.750;2022-09-13T05:16:17;13.50;;;8.03;;
4375;SDS011;2202;50.866;12.750;2022-09-13T05:18:44;9.97;;;7.87;;
4375;SDS011;2202;50.866;12.750;2022-09-13T05:21:11;12.43;;;7.60;;
4375;SDS011;2202;50.866;12.750;2022-09-13T05:23:37;9.23;;;7.47;;
4375;SDS011;2202;50.866;12.750;2022-09-13T05:26:05;10.40;;;7.90;;
4375;SDS011;2202;50.866;12.750;2022-09-13T05:28:34;10.53;;;8.00;;
4375;SDS011;2202;50.866;12.750;2022-09-13T05:31:04;10.30;;;7.90;;
4375;SDS011;2202;50.866;12.750;2022-09-13T05:33:33;17.10;;;8.97;;
4375;SDS011;2202;50.866;12.750;2022-09-13T05:36:01;10.67;;;7.97;;
4375;SDS011;2202;50.866;12.750;2022-09-13T05:38:28;10.10;;;8.47;;
4375;SDS011;2202;50.866;12.750;2022-09-13T05:40:55;12.17;;;7.37;;
4375;SDS011;2202;50.866;12.750;2022-09-13T05:43:23;9.70;;;7.13;;
4375;SDS011;2202;50.866;12.750;2022-09-13T05:45:58;9.00;;;6.27;;
4375;SDS011;2202;50.866;12.750;2022-09-13T05:48:27;10.00;;;7.50;;
4375;SDS011;2202;50.866;12.750;2022-09-13T05:50:54;15.57;;;8.50;;
4375;SDS011;2202;50.866;12.750;2022-09-13T05:53:21;15.77;;;8.10;;
4375;SDS011;2202;50.866;12.750;2022-09-13T05:55:48;10.40;;;8.30;;
4375;SDS011;2202;50.866;12.750;2022-09-13T05:58:15;17.90;;;8.67;;
4375;SDS011;2202;50.866;12.750;2022-09-13T06:00:42;10.40;;;7.40;;
4375;SDS011;2202;50.866;12.750;2022-09-13T06:03:09;11.87;;;7.93;;
4375;SDS011;2202;50.866;12.750;2022-09-13T06:05:37;10.50;;;8.60;;
4375;SDS011;2202;50.866;12.750;2022-09-13T06:08:04;10.73;;;7.87;;
4375;SDS011;2202;50.866;12.750;2022-09-13T06:10:32;10.70;;;7.10;;
4375;SDS011;2202;50.866;12.750;2022-09-13T06:12:59;9.37;;;7.00;;
4375;SDS011;2202;50.866;12.750;2022-09-13T06:15:26;10.97;;;7.53;;
4375;SDS011;2202;50.866;12.750;2022-09-13T06:17:53;9.57;;;7.43;;
4375;SDS011;2202;50.866;12.750;2022-09-13T06:20:19;11.03;;;8.23;;
4375;SDS011;2202;50.866;12.750;2022-09-13T06:22:48;15.43;;;7.93;;
4375;SDS011;2202;50.866;12.750;2022-09-13T06:25:15;10.87;;;7.70;;
4375;SDS011;2202;50.866;12.750;2022-09-13T06:27:42;9.77;;;7.87;;
4375;SDS011;2202;50.866;12.750;2022-09-13T06:30:09;12.00;;;6.97;;
4375;SDS011;2202;50.866;12.750;2022-09-13T06:32:37;10.83;;;8.17;;
4375;SDS011;2202;50.866;12.750;2022-09-13T06:35:04;10.90;;;7.73;;
4375;SDS011;2202;50.866;12.750;2022-09-13T06:37:32;10.67;;;7.17;;
4375;SDS011;2202;50.866;12.750;2022-09-13T06:40:00;11.90;;;8.47;;
4375;SDS011;2202;50.866;12.750;2022-09-13T06:42:29;9.87;;;7.00;;
4375;SDS011;2202;50.866;12.750;2022-09-13T06:44:55;12.17;;;7.60;;
4375;SDS011;2202;50.866;12.750;2022-09-13T06:47:22;10.80;;;7.50;;
4375;SDS011;2202;50.866;12.750;2022-09-13T06:49:49;12.73;;;7.87;;
4375;SDS011;2202;50.866;12.750;2022-09-13T06:52:16;14.10;;;7.50;;
4375;SDS011;2202;50.866;12.750;2022-09-13T06:54:43;13.17;;;7.97;;
4375;SDS011;2202;50.866;12.750;2022-09-13T06:57:12;13.10;;;7.87;;
4375;SDS011;2202;50.866;12.750;2022-09-13T06:59:38;12.83;;;7.60;;
4375;SDS011;2202;50.866;12.750;2022-09-13T07:02:05;13.47;;;7.53;;
4375;SDS011;2202;50.866;12.750;2022-09-13T07:04:32;12.07;;;7.80;;
4375;SDS011;2202;50.866;12.750;2022-09-13T07:06:59;13.37;;;7.80;;
4375;SDS011;2202;50.866;12.750;2022-09-13T07:09:26;14.20;;;7.77;;
4375;SDS011;2202;50.866;12.750;2022-09-13T07:11:54;15.33;;;8.30;;
4375;SDS011;2202;50.866;12.750;2022-09-13T07:14:23;15.07;;;7.57;;
4375;SDS011;2202;50.866;12.750;2022-09-13T07:16:51;13.43;;;7.00;;
4375;SDS011;2202;50.866;12.750;2022-09-13T07:19:19;14.30;;;7.60;;
4375;SDS011;2202;50.866;12.750;2022-09-13T07:21:47;12.37;;;7.40;;
4375;SDS011;2202;50.866;12.750;2022-09-13T07:24:15;21.83;;;10.07;;
4375;SDS011;2202;50.866;12.750;2022-09-13T07:26:42;20.60;;;8.47;;
4375;SDS011;2202;50.866;12.750;2022-09-13T07:29:11;12.63;;;6.77;;
4375;SDS011;2202;50.866;12.750;2022-09-13T07:31:42;31.80;;;12.27;;
4375;SDS011;2202;50.866;12.750;2022-09-13T07:34:11;16.10;;;8.00;;
4375;SDS011;2202;50.866;12.750;2022-09-13T07:36:39;14.97;;;7.60;;
4375;SDS011;2202;50.866;12.750;2022-09-13T07:39:07;13.27;;;7.33;;
4375;SDS011;2202;50.866;12.750;2022-09-13T07:41:34;11.03;;;6.53;;
4375;SDS011;2202;50.866;12.750;2022-09-13T07:44:02;13.73;;;5.80;;
4375;SDS011;2202;50.866;12.750;2022-09-13T07:46:30;11.57;;;6.57;;
4375;SDS011;2202;50.866;12.750;2022-09-13T07:48:59;13.07;;;7.33;;
4375;SDS011;2202;50.866;12.750;2022-09-13T07:51:27;11.27;;;6.03;;
4375;SDS011;2202;50.866;12.750;2022-09-13T07:53:56;12.57;;;6.97;;
4375;SDS011;2202;50.866;12.750;2022-09-13T07:56:24;11.07;;;6.03;;
4375;SDS011;2202;50.866;12.750;2022-09-13T07:58:53;14.00;;;6.87;;
4375;SDS011;2202;50.866;12.750;2022-09-13T08:01:21;10.80;;;5.63;;
4375;SDS011;2202;50.866;12.750;2022-09-13T08:03:49;13.20;;;7.40;;
4375;SDS011;2202;50.866;12.750;2022-09-13T08:06:19;12.57;;;6.83;;
4375;SDS011;2202;50.866;12.750;2022-09-13T08:08:46;15.33;;;7.00;;
4375;SDS011;2202;50.866;12.750;2022-09-13T08:11:15;16.80;;;8.43;;
4375;SDS011;2202;50.866;12.750;2022-09-13T08:13:43;12.13;;;6.87;;
4375;SDS011;2202;50.866;12.750;2022-09-13T08:16:11;14.03;;;7.13;;
4375;SDS011;2202;50.866;12.750;2022-09-13T08:18:41;15.23;;;7.50;;
4375;SDS011;2202;50.866;12.750;2022-09-13T08:21:09;13.47;;;7.93;;
4375;SDS011;2202;50.866;12.750;2022-09-13T08:23:37;11.07;;;6.93;;
4375;SDS011;2202;50.866;12.750;2022-09-13T08:26:04;11.20;;;6.90;;
4375;SDS011;2202;50.866;12.750;2022-09-13T08:28:33;14.97;;;8.00;;
4375;SDS011;2202;50.866;12.750;2022-09-13T08:31:04;10.47;;;7.10;;
4375;SDS011;2202;50.866;12.750;2022-09-13T08:33:32;10.33;;;6.77;;
4375;SDS011;2202;50.866;12.750;2022-09-13T08:36:00;13.63;;;8.00;;
4375;SDS011;2202;50.866;12.750;2022-09-13T08:38:27;11.67;;;7.50;;
4375;SDS011;2202;50.866;12.750;2022-09-13T08:40:56;13.50;;;7.77;;
4375;SDS011;2202;50.866;12.750;2022-09-13T08:43:30;11.23;;;7.50;;
4375;SDS011;2202;50.866;12.750;2022-09-13T08:46:05;14.57;;;6.80;;
4375;SDS011;2202;50.866;12.750;2022-09-13T08:48:41;12.50;;;7.17;;
4375;SDS011;2202;50.866;12.750;2022-09-13T08:51:15;9.50;;;6.97;;
4375;SDS011;2202;50.866;12.750;2022-09-13T08:53:58;11.40;;;7.87;;
4375;SDS011;2202;50.866;12.750;2022-09-13T08:56:31;9.60;;;6.77;;
4375;SDS011;2202;50.866;12.750;2022-09-13T08:59:17;9.33;;;6.60;;
4375;SDS011;2202;50.866;12.750;2022-09-13T09:01:54;10.23;;;6.20;;
4375;SDS011;2202;50.866;12.750;2022-09-13T09:04:33;9.50;;;6.10;;
4375;SDS011;2202;50.866;12.750;2022-09-13T09:07:05;9.13;;;6.00;;
4375;SDS011;2202;50.866;12.750;2022-09-13T09:09:39;12.37;;;6.17;;
4375;SDS011;2202;50.866;12.750;2022-09-13T09:12:14;10.60;;;5.10;;
4375;SDS011;2202;50.866;12.750;2022-09-13T09:14:47;9.97;;;5.00;;
4375;SDS011;2202;50.866;12.750;2022-09-13T09:17:24;12.57;;;5.87;;
4375;SDS011;2202;50.866;12.750;2022-09-13T09:19:57;11.60;;;6.77;;
4375;SDS011;2202;50.866;12.750;2022-09-13T09:22:32;11.70;;;6.20;;
4375;SDS011;2202;50.866;12.750;2022-09-13T09:25:00;11.50;;;5.83;;
4375;SDS011;2202;50.866;12.750;2022-09-13T09:27:30;14.10;;;5.80;;
4375;SDS011;2202;50.866;12.750;2022-09-13T09:29:57;11.73;;;5.90;;
4375;SDS011;2202;50.866;12.750;2022-09-13T09:35:37;9.77;;;5.77;;
4375;SDS011;2202;50.866;12.750;2022-09-13T09:38:20;11.33;;;5.77;;
4375;SDS011;2202;50.866;12.750;2022-09-13T09:40:55;9.30;;;5.30;;
4375;SDS011;2202;50.866;12.750;2022-09-13T09:43:31;9.33;;;5.33;;
4375;SDS011;2202;50.866;12.750;2022-09-13T09:46:02;8.10;;;5.00;;
4375;SDS011;2202;50.866;12.750;2022-09-13T09:48:36;8.70;;;4.70;;
4375;SDS011;2202;50.866;12.750;2022-09-13T09:51:08;7.33;;;4.43;;
4375;SDS011;2202;50.866;12.750;2022-09-13T09:53:38;8.70;;;4.10;;
4375;SDS011;2202;50.866;12.750;2022-09-13T09:56:15;9.60;;;5.07;;
4375;SDS011;2202;50.866;12.750;2022-09-13T09:58:48;6.00;;;4.40;;
4375;SDS011;2202;50.866;12.750;2022-09-13T10:01:16;6.50;;;4.60;;
4375;SDS011;2202;50.866;12.750;2022-09-13T10:03:49;7.07;;;4.37;;
4375;SDS011;2202;50.866;12.750;2022-09-13T10:06:20;7.90;;;4.13;;
4375;SDS011;2202;50.866;12.750;2022-09-13T10:08:53;9.70;;;4.30;;
4375;SDS011;2202;50.866;12.750;2022-09-13T10:11:24;6.13;;;4.33;;
4375;SDS011;2202;50.866;12.750;2022-09-13T10:17:05;11.33;;;5.00;;
4375;SDS011;2202;50.866;12.750;2022-09-13T10:19:40;8.53;;;5.10;;
4375;SDS011;2202;50.866;12.750;2022-09-13T10:22:16;8.40;;;5.33;;
4375;SDS011;2202;50.866;12.750;2022-09-13T10:24:43;7.17;;;4.60;;
4375;SDS011;2202;50.866;12.750;2022-09-13T10:27:28;13.03;;;6.03;;
4375;SDS011;2202;50.866;12.750;2022-09-13T10:29:59;12.47;;;6.23;;
4375;SDS011;2202;50.866;12.750;2022-09-13T10:32:29;10.70;;;6.33;;
4375;SDS011;2202;50.866;12.750;2022-09-13T10:34:57;10.20;;;6.33;;
4375;SDS011;2202;50.866;12.750;2022-09-13T10:37:33;10.67;;;6.97;;
4375;SDS011;2202;50.866;12.750;2022-09-13T10:40:01;10.60;;;6.60;;
4375;SDS011;2202;50.866;12.750;2022-09-13T10:42:32;10.30;;;5.43;;
4375;SDS011;2202;50.866;12.750;2022-09-13T10:45:01;10.97;;;5.47;;
4375;SDS011;2202;50.866;12.750;2022-09-13T10:47:31;13.60;;;5.73;;
4375;SDS011;2202;50.866;12.750;2022-09-13T10:50:17;9.70;;;5.80;;
4375;SDS011;2202;50.866;12.750;2022-09-13T10:52:45;8.60;;;5.20;;
4375;SDS011;2202;50.866;12.750;2022-09-13T10:55:26;9.37;;;4.80;;
4375;SDS011;2202;50.866;12.750;2022-09-13T10:58:10;7.10;;;4.37;;
4375;SDS011;2202;50.866;12.750;2022-09-13T11:00:44;6.93;;;4.00;;
4375;SDS011;2202;50.866;12.750;2022-09-13T11:03:27;6.40;;;4.03;;
4375;SDS011;2202;50.866;12.750;2022-09-13T11:06:10;7.93;;;4.60;;
4375;SDS011;2202;50.866;12.750;2022-09-13T11:08:46;6.43;;;3.97;;
4375;SDS011;2202;50.866;12.750;2022-09-13T11:11:21;9.10;;;4.23;;
4375;SDS011;2202;50.866;12.750;2022-09-13T11:14:03;6.50;;;4.37;;
4375;SDS011;2202;50.866;12.750;2022-09-13T11:16:49;5.37;;;3.87;;
4375;SDS011;2202;50.866;12.750;2022-09-13T11:19:37;5.10;;;3.80;;
4375;SDS011;2202;50.866;12.750;2022-09-13T11:22:22;3.00;;;2.70;;
4375;SDS011;2202;50.866;12.750;2022-09-13T11:25:02;4.20;;;3.50;;
4375;SDS011;2202;50.866;12.750;2022-09-13T11:27:41;4.27;;;3.60;;
4375;SDS011;2202;50.866;12.750;2022-09-13T11:30:17;5.27;;;4.00;;
4375;SDS011;2202;50.866;12.750;2022-09-13T11:32:58;4.60;;;3.67;;
4375;SDS011;2202;50.866;12.750;2022-09-13T11:35:46;4.73;;;3.30;;
4375;SDS011;2202;50.866;12.750;2022-09-13T11:38:27;4.63;;;3.50;;
4375;SDS011;2202;50.866;12.750;2022-09-13T11:41:09;4.10;;;3.40;;
4375;SDS011;2202;50.866;12.750;2022-09-13T11:43:50;3.97;;;2.80;;
4375;SDS011;2202;50.866;12.750;2022-09-13T11:46:26;3.97;;;3.40;;
4375;SDS011;2202;50.866;12.750;2022-09-13T11:49:17;3.63;;;3.27;;
4375;SDS011;2202;50.866;12.750;2022-09-13T11:52:02;3.20;;;2.80;;
4375;SDS011;2202;50.866;12.750;2022-09-13T11:57:29;5.50;;;4.27;;
4375;SDS011;2202;50.866;12.750;2022-09-13T12:00:00;4.20;;;3.80;;
4375;SDS011;2202;50.866;12.750;2022-09-13T12:02:31;4.50;;;3.30;;
4375;SDS011;2202;50.866;12.750;2022-09-13T12:05:07;4.70;;;4.20;;
4375;SDS011;2202;50.866;12.750;2022-09-13T12:07:40;7.33;;;3.97;;
4375;SDS011;2202;50.866;12.750;2022-09-13T12:10:13;4.60;;;3.20;;
4375;SDS011;2202;50.866;12.750;2022-09-13T12:12:43;4.10;;;3.40;;
4375;SDS011;2202;50.866;12.750;2022-09-13T12:15:17;4.33;;;3.70;;
4375;SDS011;2202;50.866;12.750;2022-09-13T12:17:47;4.50;;;4.00;;
4375;SDS011;2202;50.866;12.750;2022-09-13T12:20:19;4.23;;;3.53;;
4375;SDS011;2202;50.866;12.750;2022-09-13T12:22:57;3.73;;;3.20;;
4375;SDS011;2202;50.866;12.750;2022-09-13T12:25:27;4.40;;;3.50;;
4375;SDS011;2202;50.866;12.750;2022-09-13T12:28:03;5.43;;;3.93;;
4375;SDS011;2202;50.866;12.750;2022-09-13T12:30:41;4.90;;;3.97;;
4375;SDS011;2202;50.866;12.750;2022-09-13T12:33:12;4.30;;;3.60;;
4375;SDS011;2202;50.866;12.750;2022-09-13T12:35:44;4.47;;;3.93;;
4375;SDS011;2202;50.866;12.750;2022-09-13T12:38:22;4.47;;;3.90;;
4375;SDS011;2202;50.866;12.750;2022-09-13T12:41:17;4.63;;;3.80;;
4375;SDS011;2202;50.866;12.750;2022-09-13T12:50:09;4.50;;;4.03;;
4375;SDS011;2202;50.866;12.750;2022-09-13T12:53:03;4.07;;;3.67;;
4375;SDS011;2202;50.866;12.750;2022-09-13T12:55:45;4.03;;;2.90;;
4375;SDS011;2202;50.866;12.750;2022-09-13T12:58:31;2.97;;;2.77;;
4375;SDS011;2202;50.866;12.750;2022-09-13T13:01:08;3.80;;;3.20;;
4375;SDS011;2202;50.866;12.750;2022-09-13T13:03:40;5.23;;;3.00;;
4375;SDS011;2202;50.866;12.750;2022-09-13T13:06:17;3.33;;;2.83;;
4375;SDS011;2202;50.866;12.750;2022-09-13T13:08:53;5.30;;;2.80;;
4375;SDS011;2202;50.866;12.750;2022-09-13T13:11:22;3.77;;;3.43;;
4375;SDS011;2202;50.866;12.750;2022-09-13T13:13:52;3.10;;;2.80;;
4375;SDS011;2202;50.866;12.750;2022-09-13T13:16:23;3.30;;;3.00;;
4375;SDS011;2202;50.866;12.750;2022-09-13T13:18:53;3.50;;;3.20;;
4375;SDS011;2202;50.866;12.750;2022-09-13T13:21:21;3.40;;;3.10;;
4375;SDS011;2202;50.866;12.750;2022-09-13T13:27:01;3.53;;;3.23;;
4375;SDS011;2202;50.866;12.750;2022-09-13T13:33:20;3.83;;;2.80;;
4375;SDS011;2202;50.866;12.750;2022-09-13T13:35:50;2.93;;;2.73;;
4375;SDS011;2202;50.866;12.750;2022-09-13T13:38:33;3.93;;;2.77;;
4375;SDS011;2202;50.866;12.750;2022-09-13T13:41:06;3.73;;;2.83;;
4375;SDS011;2202;50.866;12.750;2022-09-13T13:43:55;3.50;;;3.17;;
4375;SDS011;2202;50.866;12.750;2022-09-13T13:46:25;3.03;;;2.83;;
4375;SDS011;2202;50.866;12.750;2022-09-13T13:48:54;2.90;;;2.40;;
4375;SDS011;2202;50.866;12.750;2022-09-13T13:51:42;3.00;;;2.43;;
4375;SDS011;2202;50.866;12.750;2022-09-13T13:56:54;3.33;;;3.03;;
4375;SDS011;2202;50.866;12.750;2022-09-13T13:59:25;3.03;;;2.80;;
4375;SDS011;2202;50.866;12.750;2022-09-13T14:01:57;4.97;;;2.90;;
4375;SDS011;2202;50.866;12.750;2022-09-13T14:07:45;8.33;;;4.10;;
4375;SDS011;2202;50.866;12.750;2022-09-13T14:10:38;5.53;;;2.80;;
4375;SDS011;2202;50.866;12.750;2022-09-13T14:13:17;5.90;;;3.30;;
4375;SDS011;2202;50.866;12.750;2022-09-13T14:15:59;3.37;;;2.87;;
4375;SDS011;2202;50.866;12.750;2022-09-13T14:21:37;2.90;;;2.70;;
4375;SDS011;2202;50.866;12.750;2022-09-13T14:24:06;3.23;;;2.93;;
4375;SDS011;2202;50.866;12.750;2022-09-13T14:26:44;4.60;;;3.00;;
4375;SDS011;2202;50.866;12.750;2022-09-13T14:29:14;4.10;;;2.53;;
4375;SDS011;2202;50.866;12.750;2022-09-13T14:31:45;2.50;;;2.30;;
4375;SDS011;2202;50.866;12.750;2022-09-13T14:34:19;3.40;;;2.23;;
4375;SDS011;2202;50.866;12.750;2022-09-13T14:36:51;2.70;;;2.50;;
4375;SDS011;2202;50.866;12.750;2022-09-13T14:39:19;4.20;;;3.20;;
4375;SDS011;2202;50.866;12.750;2022-09-13T14:41:47;3.60;;;2.87;;
4375;SDS011;2202;50.866;12.750;2022-09-13T14:44:23;3.83;;;3.53;;
4375;SDS011;2202;50.866;12.750;2022-09-13T14:46:52;3.30;;;2.83;;
4375;SDS011;2202;50.866;12.750;2022-09-13T14:49:25;10.93;;;3.47;;
4375;SDS011;2202;50.866;12.750;2022-09-13T14:51:57;3.47;;;3.03;;
4375;SDS011;2202;50.866;12.750;2022-09-13T14:54:28;3.50;;;2.63;;
4375;SDS011;2202;50.866;12.750;2022-09-13T14:57:00;3.40;;;2.80;;
4375;SDS011;2202;50.866;12.750;2022-09-13T14:59:29;3.90;;;3.00;;
4375;SDS011;2202;50.866;12.750;2022-09-13T15:02:04;5.23;;;2.97;;
4375;SDS011;2202;50.866;12.750;2022-09-13T15:04:31;3.37;;;3.07;;
4375;SDS011;2202;50.866;12.750;2022-09-13T15:07:06;3.50;;;3.03;;
4375;SDS011;2202;50.866;12.750;2022-09-13T15:09:34;4.50;;;2.87;;
4375;SDS011;2202;50.866;12.750;2022-09-13T15:12:02;3.97;;;3.40;;
4375;SDS011;2202;50.866;12.750;2022-09-13T15:14:30;2.60;;;2.40;;
4375;SDS011;2202;50.866;12.750;2022-09-13T15:17:07;2.93;;;2.73;;
4375;SDS011;2202;50.866;12.750;2022-09-13T15:19:39;3.10;;;2.90;;
4375;SDS011;2202;50.866;12.750;2022-09-13T15:22:19;3.30;;;3.03;;
4375;SDS011;2202;50.866;12.750;2022-09-13T15:24:48;3.37;;;3.07;;
4375;SDS011;2202;50.866;12.750;2022-09-13T15:27:24;3.27;;;2.97;;
4375;SDS011;2202;50.866;12.750;2022-09-13T15:29:53;4.20;;;3.80;;
4375;SDS011;2202;50.866;12.750;2022-09-13T15:32:24;3.50;;;3.20;;
4375;SDS011;2202;50.866;12.750;2022-09-13T15:34:56;3.50;;;3.00;;
4375;SDS011;2202;50.866;12.750;2022-09-13T15:37:34;2.93;;;2.73;;
4375;SDS011;2202;50.866;12.750;2022-09-13T15:40:15;3.10;;;2.90;;
4375;SDS011;2202;50.866;12.750;2022-09-13T15:42:45;3.70;;;3.40;;
4375;SDS011;2202;50.866;12.750;2022-09-13T15:45:16;4.00;;;3.70;;
4375;SDS011;2202;50.866;12.750;2022-09-13T15:47:46;2.93;;;2.50;;
4375;SDS011;2202;50.866;12.750;2022-09-13T15:50:18;7.33;;;2.90;;
4375;SDS011;2202;50.866;12.750;2022-09-13T15:52:47;3.07;;;2.77;;
4375;SDS011;2202;50.866;12.750;2022-09-13T15:55:14;3.40;;;3.10;;
4375;SDS011;2202;50.866;12.750;2022-09-13T15:57:41;5.93;;;3.97;;
4375;SDS011;2202;50.866;12.750;2022-09-13T16:00:13;4.00;;;3.70;;
4375;SDS011;2202;50.866;12.750;2022-09-13T16:02:41;3.87;;;3.47;;